sensor_id;sensor_type;location;lat;lon;timestamp;P1;durP1;ratioP1;P2;durP2;ratioP2
24090;SDS011;12272;52.426;17.100;2022-09-21T00:02:27;2.17;;;1.92;;
24090;SDS011;12272;52.426;17.100;2022-09-21T00:07:30;2.65;;;1.70;;
24090;SDS011;12272;52.426;17.100;2022-09-21T00:12:32;2.58;;;2.00;;
24090;SDS011;12272;52.426;17.100;2022-09-21T00:17:34;2.75;;;1.95;;
24090;SDS011;12272;52.426;17.100;2022-09-21T00:22:38;2.92;;;2.13;;
24090;SDS011;12272;52.426;17.100;2022-09-21T00:27:40;2.55;;;1.65;;
24090;SDS011;12272;52.426;17.100;2022-09-21T00:32:43;2.35;;;1.60;;
24090;SDS011;12272;52.426;17.100;2022-09-21T00:37:45;2.75;;;1.92;;
24090;SDS011;12272;52.426;17.100;2022-09-21T00:42:47;2.47;;;2.00;;
24090;SDS011;12272;52.426;17.100;2022-09-21T00:47:50;3.53;;;2.38;;
24090;SDS011;12272;52.426;17.100;2022-09-21T00:52:54;3.55;;;2.30;;
24090;SDS011;12272;52.426;17.100;2022-09-21T00:57:59;2.00;;;1.70;;
24090;SDS011;12272;52.426;17.100;2022-09-21T01:03:05;1.92;;;1.83;;
24090;SDS011;12272;52.426;17.100;2022-09-21T01:08:10;2.53;;;2.03;;
24090;SDS011;12272;52.426;17.100;2022-09-21T01:13:21;3.05;;;2.17;;
24090;SDS011;12272;52.426;17.100;2022-09-21T01:18:52;2.17;;;1.92;;
24090;SDS011;12272;52.426;17.100;2022-09-21T01:24:22;2.95;;;2.28;;
24090;SDS011;12272;52.426;17.100;2022-09-21T01:40:22;2.17;;;1.98;;
24090;SDS011;12272;52.426;17.100;2022-09-21T01:45:37;2.55;;;1.98;;
24090;SDS011;12272;52.426;17.100;2022-09-21T01:50:47;2.28;;;1.45;;
24090;SDS011;12272;52.426;17.100;2022-09-21T01:56:37;3.13;;;2.10;;
24090;SDS011;12272;52.426;17.100;2022-09-21T02:01:22;2.65;;;1.75;;
24090;SDS011;12272;52.426;17.100;2022-09-21T02:06:28;2.30;;;1.75;;
24090;SDS011;12272;52.426;17.100;2022-09-21T02:11:32;2.38;;;1.92;;
24090;SDS011;12272;52.426;17.100;2022-09-21T02:16:35;2.35;;;1.90;;
24090;SDS011;12272;52.426;17.100;2022-09-21T02:37:31;2.35;;;1.60;;
24090;SDS011;12272;52.426;17.100;2022-09-21T02:42:40;1.55;;;1.42;;
24090;SDS011;12272;52.426;17.100;2022-09-21T02:48:06;2.55;;;2.10;;
24090;SDS011;12272;52.426;17.100;2022-09-21T02:53:20;2.97;;;1.95;;
24090;SDS011;12272;52.426;17.100;2022-09-21T02:58:27;2.15;;;1.75;;
24090;SDS011;12272;52.426;17.100;2022-09-21T03:03:31;2.40;;;1.65;;
24090;SDS011;12272;52.426;17.100;2022-09-21T03:08:34;4.53;;;2.20;;
24090;SDS011;12272;52.426;17.100;2022-09-21T03:13:36;1.92;;;1.55;;
24090;SDS011;12272;52.426;17.100;2022-09-21T03:18:39;1.83;;;1.52;;
24090;SDS011;12272;52.426;17.100;2022-09-21T03:23:43;3.88;;;2.00;;
24090;SDS011;12272;52.426;17.100;2022-09-21T03:28:46;2.03;;;1.58;;
24090;SDS011;12272;52.426;17.100;2022-09-21T03:33:50;2.47;;;1.90;;
24090;SDS011;12272;52.426;17.100;2022-09-21T03:38:52;2.45;;;1.52;;
24090;SDS011;12272;52.426;17.100;2022-09-21T03:43:54;3.08;;;1.65;;
24090;SDS011;12272;52.426;17.100;2022-09-21T03:48:57;2.97;;;1.70;;
24090;SDS011;12272;52.426;17.100;2022-09-21T03:53:59;2.13;;;1.67;;
24090;SDS011;12272;52.426;17.100;2022-09-21T03:59:01;2.95;;;2.03;;
24090;SDS011;12272;52.426;17.100;2022-09-21T04:04:04;1.98;;;1.60;;
24090;SDS011;12272;52.426;17.100;2022-09-21T04:09:07;2.55;;;1.73;;
24090;SDS011;12272;52.426;17.100;2022-09-21T04:14:10;2.15;;;1.60;;
24090;SDS011;12272;52.426;17.100;2022-09-21T04:19:13;1.80;;;1.52;;
24090;SDS011;12272;52.426;17.100;2022-09-21T04:24:16;5.95;;;1.60;;
24090;SDS011;12272;52.426;17.100;2022-09-21T04:29:20;3.03;;;1.52;;
24090;SDS011;12272;52.426;17.100;2022-09-21T04:34:22;1.58;;;1.48;;
24090;SDS011;12272;52.426;17.100;2022-09-21T04:39:25;2.90;;;1.70;;
24090;SDS011;12272;52.426;17.100;2022-09-21T04:44:27;2.45;;;2.10;;
24090;SDS011;12272;52.426;17.100;2022-09-21T04:49:30;2.35;;;1.63;;
24090;SDS011;12272;52.426;17.100;2022-09-21T04:54:33;1.88;;;1.67;;
24090;SDS011;12272;52.426;17.100;2022-09-21T04:59:35;2.22;;;1.50;;
24090;SDS011;12272;52.426;17.100;2022-09-21T05:04:38;2.03;;;1.60;;
24090;SDS011;12272;52.426;17.100;2022-09-21T05:09:40;4.72;;;1.63;;
24090;SDS011;12272;52.426;17.100;2022-09-21T05:15:01;2.88;;;2.55;;
24090;SDS011;12272;52.426;17.100;2022-09-21T05:20:04;2.50;;;2.03;;
24090;SDS011;12272;52.426;17.100;2022-09-21T05:25:07;4.10;;;2.40;;
24090;SDS011;12272;52.426;17.100;2022-09-21T05:30:10;2.50;;;2.30;;
24090;SDS011;12272;52.426;17.100;2022-09-21T05:40:24;2.47;;;2.28;;
24090;SDS011;12272;52.426;17.100;2022-09-21T05:45:27;3.83;;;2.22;;
24090;SDS011;12272;52.426;17.100;2022-09-21T05:55:54;2.55;;;2.28;;
24090;SDS011;12272;52.426;17.100;2022-09-21T06:06:00;3.70;;;2.92;;
24090;SDS011;12272;52.426;17.100;2022-09-21T06:11:03;2.90;;;2.42;;
24090;SDS011;12272;52.426;17.100;2022-09-21T06:16:06;3.08;;;2.08;;
24090;SDS011;12272;52.426;17.100;2022-09-21T06:21:08;2.17;;;1.83;;
24090;SDS011;12272;52.426;17.100;2022-09-21T06:26:11;3.00;;;2.17;;
24090;SDS011;12272;52.426;17.100;2022-09-21T06:31:13;1.90;;;1.65;;
24090;SDS011;12272;52.426;17.100;2022-09-21T06:36:16;3.97;;;2.55;;
24090;SDS011;12272;52.426;17.100;2022-09-21T06:41:18;2.22;;;2.03;;
24090;SDS011;12272;52.426;17.100;2022-09-21T06:46:22;2.25;;;2.05;;
24090;SDS011;12272;52.426;17.100;2022-09-21T06:51:25;2.60;;;2.15;;
24090;SDS011;12272;52.426;17.100;2022-09-21T06:56:27;2.60;;;1.85;;
24090;SDS011;12272;52.426;17.100;2022-09-21T07:01:29;2.85;;;2.28;;
24090;SDS011;12272;52.426;17.100;2022-09-21T07:06:32;4.30;;;1.92;;
24090;SDS011;12272;52.426;17.100;2022-09-21T07:11:35;2.15;;;1.65;;
24090;SDS011;12272;52.426;17.100;2022-09-21T07:16:37;1.70;;;1.38;;
24090;SDS011;12272;52.426;17.100;2022-09-21T07:21:40;2.75;;;1.75;;
24090;SDS011;12272;52.426;17.100;2022-09-21T07:26:43;2.35;;;2.15;;
24090;SDS011;12272;52.426;17.100;2022-09-21T07:31:45;2.30;;;1.60;;
24090;SDS011;12272;52.426;17.100;2022-09-21T07:36:49;2.42;;;2.22;;
24090;SDS011;12272;52.426;17.100;2022-09-21T07:41:51;2.22;;;2.03;;
24090;SDS011;12272;52.426;17.100;2022-09-21T07:46:54;3.15;;;2.05;;
24090;SDS011;12272;52.426;17.100;2022-09-21T07:51:56;2.17;;;1.70;;
24090;SDS011;12272;52.426;17.100;2022-09-21T07:57:05;2.20;;;2.00;;
24090;SDS011;12272;52.426;17.100;2022-09-21T08:02:26;1.90;;;1.63;;
24090;SDS011;12272;52.426;17.100;2022-09-21T08:07:29;1.88;;;1.67;;
24090;SDS011;12272;52.426;17.100;2022-09-21T08:12:31;4.40;;;2.17;;
24090;SDS011;12272;52.426;17.100;2022-09-21T08:17:34;1.87;;;1.67;;
24090;SDS011;12272;52.426;17.100;2022-09-21T08:22:39;2.73;;;2.00;;
24090;SDS011;12272;52.426;17.100;2022-09-21T08:27:41;1.98;;;1.73;;
24090;SDS011;12272;52.426;17.100;2022-09-21T08:32:44;6.20;;;3.77;;
24090;SDS011;12272;52.426;17.100;2022-09-21T08:37:52;5.73;;;3.40;;
24090;SDS011;12272;52.426;17.100;2022-09-21T08:43:00;5.87;;;2.70;;
24090;SDS011;12272;52.426;17.100;2022-09-21T08:48:20;4.95;;;2.17;;
24090;SDS011;12272;52.426;17.100;2022-09-21T08:53:35;5.07;;;2.03;;
24090;SDS011;12272;52.426;17.100;2022-09-21T08:58:49;3.80;;;2.72;;
24090;SDS011;12272;52.426;17.100;2022-09-21T09:03:55;3.03;;;1.87;;
24090;SDS011;12272;52.426;17.100;2022-09-21T09:14:26;2.13;;;1.80;;
24090;SDS011;12272;52.426;17.100;2022-09-21T09:19:38;2.20;;;1.50;;
24090;SDS011;12272;52.426;17.100;2022-09-21T09:24:44;5.23;;;1.90;;
24090;SDS011;12272;52.426;17.100;2022-09-21T09:29:54;2.13;;;1.73;;
24090;SDS011;12272;52.426;17.100;2022-09-21T09:35:06;2.67;;;1.43;;
24090;SDS011;12272;52.426;17.100;2022-09-21T09:40:28;2.70;;;1.70;;
24090;SDS011;12272;52.426;17.100;2022-09-21T09:51:14;6.73;;;2.57;;
24090;SDS011;12272;52.426;17.100;2022-09-21T09:56:16;4.90;;;1.70;;
24090;SDS011;12272;52.426;17.100;2022-09-21T10:01:35;1.60;;;1.50;;
24090;SDS011;12272;52.426;17.100;2022-09-21T10:06:38;5.17;;;1.40;;
24090;SDS011;12272;52.426;17.100;2022-09-21T10:11:47;1.77;;;1.50;;
24090;SDS011;12272;52.426;17.100;2022-09-21T10:16:50;3.10;;;1.70;;
24090;SDS011;12272;52.426;17.100;2022-09-21T10:21:57;3.63;;;1.93;;
24090;SDS011;12272;52.426;17.100;2022-09-21T10:37:23;2.47;;;1.77;;
24090;SDS011;12272;52.426;17.100;2022-09-21T10:42:41;1.70;;;1.43;;
24090;SDS011;12272;52.426;17.100;2022-09-21T10:47:51;3.57;;;1.80;;
24090;SDS011;12272;52.426;17.100;2022-09-21T10:58:10;2.20;;;1.80;;
24090;SDS011;12272;52.426;17.100;2022-09-21T11:13:57;2.80;;;2.17;;
24090;SDS011;12272;52.426;17.100;2022-09-21T11:24:37;3.83;;;1.70;;
24090;SDS011;12272;52.426;17.100;2022-09-21T11:30:05;2.37;;;1.60;;
24090;SDS011;12272;52.426;17.100;2022-09-21T12:02:16;2.63;;;2.27;;
24090;SDS011;12272;52.426;17.100;2022-09-21T12:07:35;3.47;;;2.90;;
24090;SDS011;12272;52.426;17.100;2022-09-21T12:18:21;2.40;;;1.60;;
24090;SDS011;12272;52.426;17.100;2022-09-21T12:28:56;2.23;;;0.90;;
24090;SDS011;12272;52.426;17.100;2022-09-21T12:34:11;0.97;;;0.63;;
24090;SDS011;12272;52.426;17.100;2022-09-21T12:39:22;0.90;;;0.60;;
24090;SDS011;12272;52.426;17.100;2022-09-21T12:44:52;0.57;;;0.53;;
24090;SDS011;12272;52.426;17.100;2022-09-21T12:50:19;1.40;;;1.17;;
24090;SDS011;12272;52.426;17.100;2022-09-21T12:55:51;1.47;;;1.10;;
24090;SDS011;12272;52.426;17.100;2022-09-21T13:16:56;1.67;;;1.30;;
24090;SDS011;12272;52.426;17.100;2022-09-21T13:22:12;5.90;;;2.03;;
24090;SDS011;12272;52.426;17.100;2022-09-21T13:27:20;1.17;;;1.07;;
24090;SDS011;12272;52.426;17.100;2022-09-21T13:32:23;1.63;;;1.10;;
24090;SDS011;12272;52.426;17.100;2022-09-21T13:38:20;2.30;;;1.80;;
24090;SDS011;12272;52.426;17.100;2022-09-21T13:43:24;3.33;;;2.50;;
24090;SDS011;12272;52.426;17.100;2022-09-21T13:48:50;4.40;;;3.10;;
24090;SDS011;12272;52.426;17.100;2022-09-21T13:53:54;2.97;;;1.90;;
24090;SDS011;12272;52.426;17.100;2022-09-21T13:59:00;3.97;;;2.03;;
24090;SDS011;12272;52.426;17.100;2022-09-21T14:04:03;3.70;;;1.97;;
24090;SDS011;12272;52.426;17.100;2022-09-21T14:09:30;2.33;;;1.50;;
24090;SDS011;12272;52.426;17.100;2022-09-21T14:14:41;1.70;;;1.40;;
24090;SDS011;12272;52.426;17.100;2022-09-21T14:30:28;2.97;;;1.70;;
24090;SDS011;12272;52.426;17.100;2022-09-21T14:35:42;1.67;;;1.27;;
24090;SDS011;12272;52.426;17.100;2022-09-21T14:40:50;2.67;;;1.65;;
24090;SDS011;12272;52.426;17.100;2022-09-21T15:01:56;1.58;;;1.38;;
24090;SDS011;12272;52.426;17.100;2022-09-21T15:13:04;1.58;;;1.20;;
24090;SDS011;12272;52.426;17.100;2022-09-21T15:18:21;1.48;;;1.20;;
24090;SDS011;12272;52.426;17.100;2022-09-21T15:23:24;1.90;;;1.27;;
24090;SDS011;12272;52.426;17.100;2022-09-21T15:28:29;2.38;;;1.48;;
24090;SDS011;12272;52.426;17.100;2022-09-21T15:33:59;1.35;;;0.90;;
24090;SDS011;12272;52.426;17.100;2022-09-21T15:39:03;2.03;;;1.50;;
24090;SDS011;12272;52.426;17.100;2022-09-21T15:49:17;1.40;;;1.10;;
24090;SDS011;12272;52.426;17.100;2022-09-21T15:59:46;1.63;;;1.33;;
24090;SDS011;12272;52.426;17.100;2022-09-21T16:04:49;1.95;;;1.50;;
24090;SDS011;12272;52.426;17.100;2022-09-21T16:09:53;1.35;;;1.10;;
24090;SDS011;12272;52.426;17.100;2022-09-21T16:15:06;1.20;;;0.80;;
24090;SDS011;12272;52.426;17.100;2022-09-21T16:20:17;1.33;;;0.98;;
24090;SDS011;12272;52.426;17.100;2022-09-21T16:41:33;1.60;;;1.15;;
24090;SDS011;12272;52.426;17.100;2022-09-21T16:46:39;2.72;;;1.73;;
24090;SDS011;12272;52.426;17.100;2022-09-21T16:51:45;1.55;;;1.10;;
24090;SDS011;12272;52.426;17.100;2022-09-21T16:56:51;1.67;;;1.38;;
24090;SDS011;12272;52.426;17.100;2022-09-21T17:01:55;2.47;;;1.40;;
24090;SDS011;12272;52.426;17.100;2022-09-21T17:06:59;2.80;;;1.95;;
24090;SDS011;12272;52.426;17.100;2022-09-21T17:12:02;2.67;;;1.98;;
24090;SDS011;12272;52.426;17.100;2022-09-21T17:22:19;3.67;;;1.75;;
24090;SDS011;12272;52.426;17.100;2022-09-21T17:27:23;3.63;;;2.13;;
24090;SDS011;12272;52.426;17.100;2022-09-21T17:32:27;4.78;;;2.67;;
24090;SDS011;12272;52.426;17.100;2022-09-21T17:37:30;6.53;;;3.88;;
24090;SDS011;12272;52.426;17.100;2022-09-21T17:42:37;7.20;;;5.13;;
24090;SDS011;12272;52.426;17.100;2022-09-21T17:47:42;12.70;;;6.65;;
24090;SDS011;12272;52.426;17.100;2022-09-21T17:52:44;10.25;;;6.65;;
24090;SDS011;12272;52.426;17.100;2022-09-21T17:58:17;9.80;;;6.43;;
24090;SDS011;12272;52.426;17.100;2022-09-21T18:03:25;10.10;;;6.32;;
24090;SDS011;12272;52.426;17.100;2022-09-21T18:08:30;9.60;;;6.32;;
24090;SDS011;12272;52.426;17.100;2022-09-21T18:18:42;10.20;;;6.82;;
24090;SDS011;12272;52.426;17.100;2022-09-21T18:29:49;11.32;;;6.57;;
24090;SDS011;12272;52.426;17.100;2022-09-21T18:56:31;7.25;;;4.95;;
24090;SDS011;12272;52.426;17.100;2022-09-21T19:01:36;10.40;;;6.07;;
24090;SDS011;12272;52.426;17.100;2022-09-21T19:27:51;7.95;;;5.93;;
24090;SDS011;12272;52.426;17.100;2022-09-21T19:33:00;9.90;;;6.53;;
24090;SDS011;12272;52.426;17.100;2022-09-21T19:38:40;7.47;;;5.60;;
24090;SDS011;12272;52.426;17.100;2022-09-21T19:49:49;7.53;;;5.75;;
24090;SDS011;12272;52.426;17.100;2022-09-21T19:54:56;7.25;;;5.35;;
24090;SDS011;12272;52.426;17.100;2022-09-21T20:00:18;8.95;;;6.45;;
24090;SDS011;12272;52.426;17.100;2022-09-21T20:05:22;11.47;;;6.60;;
24090;SDS011;12272;52.426;17.100;2022-09-21T20:15:51;8.85;;;6.38;;
24090;SDS011;12272;52.426;17.100;2022-09-21T20:21:00;8.85;;;6.15;;
24090;SDS011;12272;52.426;17.100;2022-09-21T20:26:04;7.45;;;5.45;;
24090;SDS011;12272;52.426;17.100;2022-09-21T20:31:15;9.55;;;6.18;;
24090;SDS011;12272;52.426;17.100;2022-09-21T20:36:17;9.55;;;6.47;;
24090;SDS011;12272;52.426;17.100;2022-09-21T20:41:20;8.40;;;5.72;;
24090;SDS011;12272;52.426;17.100;2022-09-21T20:46:25;7.13;;;5.55;;
24090;SDS011;12272;52.426;17.100;2022-09-21T20:51:27;8.70;;;5.88;;
24090;SDS011;12272;52.426;17.100;2022-09-21T20:56:30;7.63;;;5.43;;
24090;SDS011;12272;52.426;17.100;2022-09-21T21:01:32;7.45;;;5.50;;
24090;SDS011;12272;52.426;17.100;2022-09-21T21:06:35;7.65;;;5.65;;
24090;SDS011;12272;52.426;17.100;2022-09-21T21:11:38;8.85;;;5.93;;
24090;SDS011;12272;52.426;17.100;2022-09-21T21:16:41;7.80;;;5.47;;
24090;SDS011;12272;52.426;17.100;2022-09-21T21:21:44;7.60;;;5.53;;
24090;SDS011;12272;52.426;17.100;2022-09-21T21:26:47;8.30;;;5.05;;
24090;SDS011;12272;52.426;17.100;2022-09-21T21:32:03;5.95;;;4.78;;
24090;SDS011;12272;52.426;17.100;2022-09-21T21:37:06;7.13;;;5.00;;
24090;SDS011;12272;52.426;17.100;2022-09-21T21:42:10;9.65;;;5.35;;
24090;SDS011;12272;52.426;17.100;2022-09-21T21:47:12;6.53;;;4.93;;
24090;SDS011;12272;52.426;17.100;2022-09-21T21:52:35;6.88;;;4.55;;
24090;SDS011;12272;52.426;17.100;2022-09-21T21:57:38;5.28;;;3.90;;
24090;SDS011;12272;52.426;17.100;2022-09-21T22:02:40;7.40;;;4.85;;
24090;SDS011;12272;52.426;17.100;2022-09-21T22:07:43;5.75;;;4.43;;
24090;SDS011;12272;52.426;17.100;2022-09-21T22:12:45;6.03;;;5.05;;
24090;SDS011;12272;52.426;17.100;2022-09-21T22:17:47;5.57;;;4.47;;
24090;SDS011;12272;52.426;17.100;2022-09-21T22:22:50;6.43;;;4.63;;
24090;SDS011;12272;52.426;17.100;2022-09-21T22:27:52;5.72;;;4.38;;
24090;SDS011;12272;52.426;17.100;2022-09-21T22:32:56;5.20;;;4.17;;
24090;SDS011;12272;52.426;17.100;2022-09-21T22:37:58;5.75;;;4.43;;
24090;SDS011;12272;52.426;17.100;2022-09-21T22:43:02;7.95;;;4.28;;
24090;SDS011;12272;52.426;17.100;2022-09-21T22:48:04;5.40;;;3.83;;
24090;SDS011;12272;52.426;17.100;2022-09-21T22:53:07;5.35;;;4.10;;
24090;SDS011;12272;52.426;17.100;2022-09-21T22:58:09;5.93;;;4.60;;
24090;SDS011;12272;52.426;17.100;2022-09-21T23:03:12;5.93;;;4.10;;
24090;SDS011;12272;52.426;17.100;2022-09-21T23:08:14;4.93;;;4.05;;
24090;SDS011;12272;52.426;17.100;2022-09-21T23:13:16;5.00;;;3.90;;
24090;SDS011;12272;52.426;17.100;2022-09-21T23:18:19;6.30;;;3.67;;
24090;SDS011;12272;52.426;17.100;2022-09-21T23:23:21;5.28;;;3.85;;
24090;SDS011;12272;52.426;17.100;2022-09-21T23:28:25;5.43;;;3.70;;
24090;SDS011;12272;52.426;17.100;2022-09-21T23:33:37;5.90;;;3.53;;
24090;SDS011;12272;52.426;17.100;2022-09-21T23:38:42;5.97;;;3.97;;
24090;SDS011;12272;52.426;17.100;2022-09-21T23:43:45;5.22;;;3.75;;
24090;SDS011;12272;52.426;17.100;2022-09-21T23:48:48;5.40;;;3.70;;
24090;SDS011;12272;52.426;17.100;2022-09-21T23:53:50;3.53;;;3.13;;
24090;SDS011;12272;52.426;17.100;2022-09-21T23:58:53;4.18;;;3.38;;
